createdAt,value
2022-12-03T00:02:16.754Z,94.40
2022-12-03T00:04:43.263Z,94.37
2022-12-03T00:07:09.696Z,94.51
2022-12-03T00:09:36.127Z,94.22
2022-12-03T00:12:02.531Z,94.30
2022-12-03T00:14:28.940Z,94.32
2022-12-03T00:16:55.314Z,94.62
2022-12-03T00:19:21.717Z,94.57
2022-12-03T00:21:48.229Z,94.32
2022-12-03T00:24:14.638Z,94.57
2022-12-03T00:26:41.046Z,94.52
2022-12-03T00:29:07.430Z,94.51
2022-12-03T00:31:33.980Z,94.48
2022-12-03T00:34:00.386Z,94.36
2022-12-03T00:36:26.772Z,94.48
2022-12-03T00:38:53.155Z,94.32
2022-12-03T00:41:19.553Z,94.59
2022-12-03T00:43:45.939Z,94.03
2022-12-03T00:46:14.797Z,93.98
2022-12-03T00:48:44.609Z,94.14
2022-12-03T00:51:10.959Z,94.13
2022-12-03T00:53:37.402Z,94.26
2022-12-03T00:56:03.912Z,94.22
2022-12-03T00:58:30.299Z,94.35
2022-12-03T01:00:56.694Z,94.25
2022-12-03T01:03:23.281Z,94.21
2022-12-03T01:05:49.792Z,94.04
2022-12-03T01:08:16.243Z,94.23
2022-12-03T01:10:42.713Z,94.36
2022-12-03T01:13:09.164Z,94.37
2022-12-03T01:15:35.829Z,94.29
2022-12-03T01:18:02.322Z,94.40
2022-12-03T01:20:28.893Z,94.25
2022-12-03T01:22:55.242Z,94.35
2022-12-03T01:25:21.751Z,94.25
2022-12-03T01:27:48.172Z,94.06
2022-12-03T01:30:14.820Z,94.20
2022-12-03T01:32:41.239Z,94.35
2022-12-03T01:35:08.003Z,94.08
2022-12-03T01:37:34.387Z,94.16
2022-12-03T01:40:00.869Z,94.11
2022-12-03T01:42:31.784Z,94.37
2022-12-03T01:45:00.229Z,94.44
2022-12-03T01:47:30.574Z,94.08
2022-12-03T01:50:02.733Z,94.63
2022-12-03T01:52:34.265Z,94.26
2022-12-03T01:55:04.867Z,94.51
2022-12-03T01:58:01.413Z,94.08
2022-12-03T02:00:29.283Z,94.05
2022-12-03T02:03:02.350Z,93.84
2022-12-03T02:05:33.154Z,94.75
2022-12-03T02:08:00.792Z,94.13
2022-12-03T02:10:34.243Z,94.32
2022-12-03T02:13:07.645Z,94.14
2022-12-03T02:15:35.255Z,94.19
2022-12-03T02:18:02.206Z,94.46
2022-12-03T02:20:32.955Z,94.23
2022-12-03T02:23:21.472Z,94.26
2022-12-03T02:25:48.021Z,94.37
2022-12-03T02:28:14.787Z,94.18
2022-12-03T02:30:41.177Z,94.17
2022-12-03T02:33:07.566Z,94.21
2022-12-03T02:35:36.398Z,93.98
2022-12-03T02:38:07.457Z,94.23
2022-12-03T02:40:34.387Z,94.13
2022-12-03T02:43:03.319Z,94.40
2022-12-03T02:45:36.053Z,94.33
2022-12-03T02:48:16.706Z,94.47
2022-12-03T02:50:50.072Z,94.32
2022-12-03T02:53:26.110Z,94.37
2022-12-03T02:55:54.603Z,94.42
2022-12-03T02:58:22.914Z,94.36
2022-12-03T03:00:51.777Z,94.42
2022-12-03T03:03:18.920Z,94.66
2022-12-03T03:05:46.356Z,94.26
2022-12-03T03:08:13.533Z,94.29
2022-12-03T03:10:41.467Z,94.17
2022-12-03T03:13:11.678Z,94.60
2022-12-03T03:15:40.502Z,94.41
2022-12-03T03:18:08.428Z,94.22
2022-12-03T03:20:35.439Z,94.41
2022-12-03T03:23:22.690Z,94.29
2022-12-03T03:25:58.618Z,94.45
2022-12-03T03:28:26.097Z,94.29
2022-12-03T03:30:52.928Z,94.23
2022-12-03T03:33:19.688Z,94.37
2022-12-03T03:35:48.113Z,94.30
2022-12-03T03:38:18.760Z,94.08
2022-12-03T03:40:46.526Z,94.38
2022-12-03T03:43:13.613Z,94.52
2022-12-03T03:45:40.257Z,94.44
2022-12-03T03:48:06.945Z,94.39
2022-12-03T03:50:34.253Z,94.34
2022-12-03T03:53:02.554Z,94.06
2022-12-03T03:55:31.007Z,94.46
2022-12-03T03:57:57.534Z,94.34
2022-12-03T04:00:24.068Z,94.08
2022-12-03T04:02:51.839Z,94.03
2022-12-03T04:05:20.602Z,94.36
2022-12-03T04:07:47.271Z,94.13
2022-12-03T04:10:33.301Z,94.29
2022-12-03T04:12:59.796Z,94.15
2022-12-03T04:15:26.557Z,94.02
2022-12-03T04:18:12.233Z,94.23
2022-12-03T04:20:38.840Z,94.57
2022-12-03T04:23:05.734Z,94.15
2022-12-03T04:25:51.285Z,94.25
2022-12-03T04:28:35.939Z,94.11
2022-12-03T04:31:24.935Z,93.91
2022-12-03T04:34:10.170Z,94.10
2022-12-03T04:36:36.611Z,94.05
2022-12-03T04:39:04.069Z,94.13
2022-12-03T04:41:30.470Z,94.25
2022-12-03T04:44:15.610Z,94.16
2022-12-03T04:46:41.962Z,94.62
2022-12-03T04:49:08.377Z,94.33
2022-12-03T04:51:34.798Z,94.48
2022-12-03T04:54:01.392Z,94.08
2022-12-03T04:56:27.847Z,94.47
2022-12-03T04:58:54.203Z,94.31
2022-12-03T05:01:20.688Z,94.11
2022-12-03T05:03:47.115Z,94.44
2022-12-03T05:06:13.543Z,94.37
2022-12-03T05:08:39.927Z,94.74
2022-12-03T05:11:06.688Z,94.24
2022-12-03T05:13:33.179Z,94.07
2022-12-03T05:15:59.673Z,94.48
2022-12-03T05:18:26.033Z,94.38
2022-12-03T05:20:53.681Z,94.36
2022-12-03T05:23:20.693Z,94.43
2022-12-03T05:25:47.213Z,94.37
2022-12-03T05:28:13.829Z,94.17
2022-12-03T05:30:40.511Z,94.20
2022-12-03T05:33:06.979Z,94.17
2022-12-03T05:35:33.430Z,94.25
2022-12-03T05:37:59.882Z,94.43
2022-12-03T05:40:26.374Z,94.23
2022-12-03T05:42:57.033Z,94.10
2022-12-03T05:45:35.334Z,94.12
2022-12-03T05:48:02.919Z,94.02
2022-12-03T05:50:32.984Z,94.47
2022-12-03T05:52:59.762Z,94.34
2022-12-03T05:55:27.534Z,94.20
2022-12-03T05:57:54.216Z,94.46
2022-12-03T06:00:26.282Z,94.56
2022-12-03T06:02:53.261Z,94.54
2022-12-03T06:05:20.811Z,94.36
2022-12-03T06:07:49.251Z,94.56
2022-12-03T06:10:18.802Z,94.38
2022-12-03T06:12:45.146Z,94.36
2022-12-03T06:15:12.208Z,94.47
2022-12-03T06:17:38.590Z,94.54
2022-12-03T06:20:05.890Z,94.32
2022-12-03T06:22:32.365Z,94.17
2022-12-03T06:25:03.546Z,94.17
2022-12-03T06:27:32.917Z,94.06
2022-12-03T06:29:59.314Z,94.47
2022-12-03T06:32:25.700Z,94.27
2022-12-03T06:34:52.241Z,94.32
2022-12-03T06:37:19.012Z,94.38
2022-12-03T06:39:45.431Z,94.43
2022-12-03T06:42:11.847Z,94.30
2022-12-03T06:44:38.298Z,94.78
2022-12-03T06:47:04.720Z,94.43
2022-12-03T06:49:31.166Z,94.32
2022-12-03T06:51:57.543Z,94.26
2022-12-03T06:54:23.971Z,94.31
2022-12-03T06:56:50.427Z,94.59
2022-12-03T06:59:16.895Z,94.25
2022-12-03T07:01:43.334Z,94.19
2022-12-03T07:04:09.971Z,94.47
2022-12-03T07:06:36.437Z,94.23
2022-12-03T07:09:02.961Z,94.23
2022-12-03T07:11:31.966Z,94.45
2022-12-03T07:14:05.440Z,94.50
2022-12-03T07:16:33.067Z,94.13
2022-12-03T07:18:59.573Z,94.40
2022-12-03T07:21:26.014Z,94.12
2022-12-03T07:23:52.452Z,94.29
2022-12-03T07:26:19.323Z,94.53
2022-12-03T07:28:46.715Z,94.46
2022-12-03T07:31:13.134Z,94.45
2022-12-03T07:33:39.656Z,94.38
2022-12-03T07:36:06.352Z,94.39
2022-12-03T07:38:32.772Z,94.27
2022-12-03T07:40:59.175Z,94.35
2022-12-03T07:43:25.707Z,94.32
2022-12-03T07:45:52.214Z,94.18
2022-12-03T07:48:18.720Z,94.62
2022-12-03T07:50:45.202Z,94.32
2022-12-03T07:53:11.570Z,94.44
2022-12-03T07:55:37.984Z,94.44
2022-12-03T07:58:04.455Z,94.15
2022-12-03T08:00:30.912Z,94.26
2022-12-03T08:02:57.576Z,94.37
2022-12-03T08:05:24.064Z,94.67
2022-12-03T08:07:50.486Z,94.45
2022-12-03T08:10:17.045Z,94.20
2022-12-03T08:12:43.400Z,94.21
2022-12-03T08:15:10.143Z,94.29
2022-12-03T08:17:39.043Z,94.18
2022-12-03T08:20:16.903Z,94.20
2022-12-03T08:22:45.241Z,94.28
2022-12-03T08:25:28.187Z,94.08
2022-12-03T08:28:00.145Z,94.90
2022-12-03T08:30:26.602Z,94.11
2022-12-03T08:32:53.876Z,94.39
2022-12-03T08:35:24.881Z,93.93
2022-12-03T08:38:12.046Z,94.16
2022-12-03T08:40:45.759Z,94.28
2022-12-03T08:43:26.219Z,93.99
2022-12-03T08:45:56.782Z,94.12
2022-12-03T08:48:33.755Z,94.15
2022-12-03T08:51:04.224Z,93.86
2022-12-03T08:53:32.575Z,94.12
2022-12-03T08:56:23.940Z,94.02
2022-12-03T08:58:57.688Z,93.80
2022-12-03T09:01:44.045Z,93.91
2022-12-03T09:04:20.966Z,94.06
2022-12-03T09:06:47.466Z,94.27
2022-12-03T09:09:13.853Z,94.03
2022-12-03T09:11:40.301Z,93.82
2022-12-03T09:14:06.738Z,94.01
2022-12-03T09:16:33.232Z,94.09
2022-12-03T09:18:59.869Z,93.76
2022-12-03T09:21:26.256Z,93.83
2022-12-03T09:23:52.667Z,94.00
2022-12-03T09:26:19.147Z,93.75
2022-12-03T09:28:48.143Z,93.83
2022-12-03T09:31:15.697Z,94.25
2022-12-03T09:33:42.895Z,93.67
2022-12-03T09:36:09.479Z,93.96
2022-12-03T09:38:36.019Z,93.82
2022-12-03T09:41:02.482Z,93.89
2022-12-03T09:44:02.654Z,93.84
2022-12-03T09:46:20.822Z,94.17
2022-12-03T09:48:47.486Z,93.93
2022-12-03T09:51:14.471Z,93.74
2022-12-03T09:53:41.643Z,94.05
2022-12-03T09:56:18.047Z,93.53
2022-12-03T09:58:44.442Z,93.54
2022-12-03T10:01:14.978Z,93.57
2022-12-03T10:03:50.569Z,93.63
2022-12-03T10:06:20.185Z,93.64
2022-12-03T10:08:49.149Z,93.77
2022-12-03T10:11:18.140Z,93.58
2022-12-03T10:13:45.624Z,93.41
2022-12-03T10:16:15.399Z,93.61
2022-12-03T10:18:47.277Z,93.49
2022-12-03T10:21:25.810Z,93.49
2022-12-03T10:24:17.065Z,93.38
2022-12-03T10:26:45.331Z,93.54
2022-12-03T10:29:17.674Z,93.20
2022-12-03T10:31:48.950Z,93.31
2022-12-03T10:34:24.232Z,93.51
2022-12-03T10:37:09.523Z,93.31
2022-12-03T10:39:56.273Z,93.38
2022-12-03T10:42:23.536Z,93.39
2022-12-03T10:44:53.815Z,93.30
2022-12-03T10:47:22.567Z,93.44
2022-12-03T10:50:02.447Z,93.18
2022-12-03T10:52:29.399Z,93.06
2022-12-03T10:54:56.268Z,93.26
2022-12-03T10:57:23.784Z,93.30
2022-12-03T10:59:50.235Z,93.01
2022-12-03T11:02:22.003Z,92.85
2022-12-03T11:04:49.274Z,92.96
2022-12-03T11:07:19.083Z,93.21
2022-12-03T11:09:47.819Z,93.34
2022-12-03T11:12:19.155Z,93.01
2022-12-03T11:14:52.189Z,93.09
2022-12-03T11:17:43.875Z,93.18
2022-12-03T11:20:25.640Z,93.18
2022-12-03T11:22:56.794Z,93.27
2022-12-03T11:25:26.239Z,93.20
2022-12-03T11:28:11.514Z,92.96
2022-12-03T11:31:01.147Z,93.25
2022-12-03T11:33:29.184Z,93.09
2022-12-03T11:36:05.109Z,92.95
2022-12-03T11:38:37.724Z,93.21
2022-12-03T11:41:25.945Z,93.03
2022-12-03T11:43:52.345Z,93.13
2022-12-03T11:46:24.703Z,93.23
2022-12-03T11:48:53.949Z,93.06
2022-12-03T11:51:23.312Z,93.14
2022-12-03T11:53:51.232Z,92.76
2022-12-03T11:56:24.003Z,92.79
2022-12-03T11:59:01.750Z,92.91
2022-12-03T12:01:41.813Z,92.82
2022-12-03T12:04:27.626Z,92.66
2022-12-03T12:06:54.078Z,92.82
2022-12-03T12:09:50.582Z,92.79
2022-12-03T12:12:32.132Z,92.56
2022-12-03T12:14:59.172Z,92.68
2022-12-03T12:17:36.435Z,92.48
2022-12-03T12:20:26.189Z,92.50
2022-12-03T12:22:54.303Z,92.58
2022-12-03T12:25:29.761Z,92.53
2022-12-03T12:27:57.474Z,92.51
2022-12-03T12:30:24.203Z,92.55
2022-12-03T12:32:52.987Z,92.24
2022-12-03T12:35:24.434Z,92.72
2022-12-03T12:38:00.102Z,92.40
2022-12-03T12:40:32.168Z,92.38
2022-12-03T12:43:04.311Z,92.50
2022-12-03T12:45:36.573Z,92.27
2022-12-03T12:48:25.015Z,92.13
2022-12-03T12:51:00.647Z,92.48
2022-12-03T12:53:37.226Z,92.73
2022-12-03T12:56:22.908Z,92.34
2022-12-03T12:59:09.460Z,92.26
2022-12-03T13:01:36.309Z,92.25
2022-12-03T13:04:20.387Z,92.14
2022-12-03T13:06:53.572Z,92.32
2022-12-03T13:09:32.795Z,92.21
2022-12-03T13:12:03.801Z,92.21
2022-12-03T13:14:34.588Z,92.39
2022-12-03T13:17:10.843Z,91.76
2022-12-03T13:19:47.614Z,92.14
2022-12-03T13:22:19.453Z,92.29
2022-12-03T13:24:50.600Z,92.27
2022-12-03T13:27:19.702Z,91.94
2022-12-03T13:29:49.600Z,92.17
2022-12-03T13:32:20.520Z,91.97
2022-12-03T13:34:47.535Z,92.12
2022-12-03T13:37:23.139Z,92.13
2022-12-03T13:39:52.156Z,92.45
2022-12-03T13:42:46.426Z,92.19
2022-12-03T13:45:15.549Z,91.86
2022-12-03T13:47:44.786Z,91.96
2022-12-03T13:50:40.849Z,91.85
2022-12-03T13:53:27.880Z,91.92
2022-12-03T13:56:20.491Z,91.85
2022-12-03T13:58:46.872Z,92.00
2022-12-03T14:01:13.375Z,91.83
2022-12-03T14:03:39.821Z,92.01
2022-12-03T14:06:06.517Z,91.98
2022-12-03T14:08:32.935Z,91.73
2022-12-03T14:11:00.878Z,91.84
2022-12-03T14:13:28.196Z,91.82
2022-12-03T14:15:55.188Z,91.98
2022-12-03T14:18:21.803Z,91.98
2022-12-03T14:20:48.291Z,91.58
2022-12-03T14:23:15.067Z,92.00
2022-12-03T14:25:43.850Z,91.96
2022-12-03T14:28:10.588Z,91.76
2022-12-03T14:30:37.170Z,91.85
2022-12-03T14:33:04.036Z,91.56
2022-12-03T14:35:30.413Z,91.95
2022-12-03T14:37:56.782Z,91.80
2022-12-03T14:40:23.250Z,91.62
2022-12-03T14:42:49.683Z,91.52
2022-12-03T14:45:16.252Z,91.60
2022-12-03T14:47:42.654Z,91.84
2022-12-03T14:50:13.997Z,91.84
2022-12-03T14:52:40.750Z,91.64
2022-12-03T14:55:07.567Z,91.57
2022-12-03T14:57:33.930Z,91.91
2022-12-03T15:00:00.395Z,91.93
2022-12-03T15:02:26.907Z,91.65
2022-12-03T15:04:53.380Z,91.93
2022-12-03T15:07:34.981Z,91.72
2022-12-03T15:10:01.500Z,91.70
2022-12-03T15:12:27.941Z,91.78
2022-12-03T15:14:54.648Z,91.51
2022-12-03T15:17:29.459Z,91.16
2022-12-03T15:19:57.542Z,91.47
2022-12-03T15:22:23.983Z,91.34
2022-12-03T15:24:50.409Z,91.53
2022-12-03T15:27:16.855Z,91.49
2022-12-03T15:29:43.302Z,91.55
2022-12-03T15:32:09.755Z,91.53
2022-12-03T15:34:36.095Z,91.67
2022-12-03T15:37:02.656Z,91.33
2022-12-03T15:39:29.644Z,91.33
2022-12-03T15:41:56.159Z,91.53
2022-12-03T15:44:22.556Z,91.34
2022-12-03T15:46:49.060Z,91.48
2022-12-03T15:49:15.463Z,91.48
2022-12-03T15:51:41.889Z,91.67
2022-12-03T15:54:08.576Z,91.54
2022-12-03T15:56:37.618Z,91.16
2022-12-03T15:59:04.659Z,91.33
2022-12-03T16:01:31.214Z,91.56
2022-12-03T16:03:57.863Z,91.18
2022-12-03T16:06:24.274Z,91.41
2022-12-03T16:08:50.686Z,91.44
2022-12-03T16:11:17.194Z,91.29
2022-12-03T16:13:43.595Z,91.46
2022-12-03T16:16:10.108Z,91.39
2022-12-03T16:18:36.653Z,91.14
2022-12-03T16:21:03.020Z,91.14
2022-12-03T16:23:29.446Z,91.14
2022-12-03T16:25:55.916Z,91.27
2022-12-03T16:28:22.395Z,91.37
2022-12-03T16:30:48.880Z,91.27
2022-12-03T16:33:15.476Z,91.38
2022-12-03T16:35:41.938Z,91.19
2022-12-03T16:38:08.365Z,90.90
2022-12-03T16:40:34.836Z,91.31
2022-12-03T16:43:03.276Z,91.01
2022-12-03T16:45:29.749Z,90.89
2022-12-03T16:47:56.231Z,90.98
2022-12-03T16:50:29.525Z,90.95
2022-12-03T16:52:57.125Z,91.00
2022-12-03T16:55:23.664Z,91.15
2022-12-03T16:57:50.020Z,90.92
2022-12-03T17:00:17.123Z,91.11
2022-12-03T17:02:43.620Z,90.73
2022-12-03T17:05:10.107Z,90.97
2022-12-03T17:07:36.526Z,91.15
2022-12-03T17:10:03.387Z,90.83
2022-12-03T17:12:37.614Z,90.91
2022-12-03T17:15:09.355Z,90.67
2022-12-03T17:17:35.985Z,90.68
2022-12-03T17:20:02.521Z,90.67
2022-12-03T17:22:29.051Z,90.97
2022-12-03T17:24:55.597Z,90.88
2022-12-03T17:27:24.701Z,90.88
2022-12-03T17:29:51.308Z,90.90
2022-12-03T17:32:17.875Z,90.64
2022-12-03T17:34:44.374Z,90.72
2022-12-03T17:37:10.744Z,91.20
2022-12-03T17:39:37.135Z,90.77
2022-12-03T17:42:03.698Z,90.75
2022-12-03T17:44:30.036Z,90.96
2022-12-03T17:46:56.485Z,90.93
2022-12-03T17:49:26.898Z,90.84
2022-12-03T17:51:56.766Z,90.61
2022-12-03T17:54:23.216Z,90.67
2022-12-03T17:56:49.637Z,90.40
2022-12-03T17:59:16.097Z,90.83
2022-12-03T18:01:43.640Z,90.53
2022-12-03T18:04:10.387Z,90.80
2022-12-03T18:06:37.177Z,90.70
2022-12-03T18:09:04.623Z,90.75
2022-12-03T18:11:31.675Z,90.48
2022-12-03T18:13:58.658Z,90.67
2022-12-03T18:16:25.101Z,90.55
2022-12-03T18:18:56.319Z,90.67
2022-12-03T18:21:24.443Z,90.58
2022-12-03T18:23:50.971Z,90.76
2022-12-03T18:26:17.367Z,90.63
2022-12-03T18:28:43.798Z,90.77
2022-12-03T18:31:14.475Z,90.58
2022-12-03T18:33:41.017Z,90.56
2022-12-03T18:36:16.048Z,90.59
2022-12-03T18:38:42.880Z,90.24
2022-12-03T18:41:09.344Z,90.53
2022-12-03T18:43:36.102Z,90.38
2022-12-03T18:46:04.506Z,90.38
2022-12-03T18:48:30.914Z,90.32
2022-12-03T18:50:57.362Z,90.62
2022-12-03T18:53:23.768Z,90.07
2022-12-03T18:55:50.279Z,90.24
2022-12-03T18:58:16.647Z,90.29
2022-12-03T19:00:43.264Z,90.27
2022-12-03T19:03:10.104Z,90.13
2022-12-03T19:05:36.570Z,90.25
2022-12-03T19:08:03.686Z,90.23
2022-12-03T19:10:30.420Z,90.27
2022-12-03T19:12:57.366Z,90.31
2022-12-03T19:15:24.136Z,90.11
2022-12-03T19:17:51.114Z,90.32
2022-12-03T19:20:17.673Z,89.80
2022-12-03T19:22:44.098Z,90.31
2022-12-03T19:25:10.734Z,89.91
2022-12-03T19:27:37.186Z,90.50
2022-12-03T19:30:05.217Z,90.33
2022-12-03T19:32:31.664Z,90.27
2022-12-03T19:34:58.242Z,90.20
2022-12-03T19:37:24.837Z,90.03
2022-12-03T19:39:54.541Z,90.02
2022-12-03T19:42:21.293Z,89.99
2022-12-03T19:44:47.677Z,90.22
2022-12-03T19:47:14.106Z,90.29
2022-12-03T19:49:40.552Z,90.35
2022-12-03T19:52:06.943Z,90.12
2022-12-03T19:54:33.419Z,89.99
2022-12-03T19:56:59.925Z,89.95
2022-12-03T19:59:26.371Z,89.92
2022-12-03T20:01:53.051Z,90.22
2022-12-03T20:04:32.101Z,90.00
2022-12-03T20:08:09.617Z,90.22
2022-12-03T20:10:58.311Z,89.76
2022-12-03T20:14:18.868Z,90.00
2022-12-03T20:16:52.869Z,89.86
2022-12-03T20:19:32.174Z,89.68
2022-12-03T20:22:07.750Z,89.87
2022-12-03T20:24:49.666Z,89.97
2022-12-03T20:27:23.792Z,89.92
2022-12-03T20:30:57.392Z,89.59
2022-12-03T20:33:49.919Z,90.12
2022-12-03T20:37:08.784Z,90.19
2022-12-03T20:42:33.760Z,89.80
2022-12-03T20:45:20.194Z,89.81
2022-12-03T20:47:58.001Z,89.82
2022-12-03T20:50:43.394Z,90.01
2022-12-03T20:53:27.433Z,89.93
2022-12-03T20:56:15.387Z,89.94
2022-12-03T20:59:03.227Z,89.82
2022-12-03T21:01:36.731Z,89.83
2022-12-03T21:04:34.270Z,90.01
2022-12-03T21:07:17.064Z,89.61
2022-12-03T21:10:08.216Z,89.92
2022-12-03T21:12:42.666Z,89.55
2022-12-03T21:15:21.101Z,89.63
2022-12-03T21:17:51.698Z,89.60
2022-12-03T21:20:33.208Z,89.68
2022-12-03T21:23:09.637Z,89.94
2022-12-03T21:25:53.147Z,89.57
2022-12-03T21:28:56.525Z,89.43
2022-12-03T21:31:46.661Z,89.44
2022-12-03T21:34:27.347Z,89.44
2022-12-03T21:38:11.335Z,89.67
2022-12-03T21:41:13.744Z,89.63
2022-12-03T21:43:28.512Z,89.79
2022-12-03T21:47:09.407Z,89.91
2022-12-03T21:52:06.780Z,89.67
2022-12-03T21:57:42.626Z,89.59
2022-12-03T22:00:16.797Z,89.56
2022-12-03T22:02:43.658Z,89.55
2022-12-03T22:05:11.151Z,89.37
2022-12-03T22:07:39.669Z,89.25
2022-12-03T22:10:09.472Z,89.54
2022-12-03T22:12:36.169Z,89.43
2022-12-03T22:15:03.612Z,89.36
2022-12-03T22:17:30.254Z,89.69
2022-12-03T22:19:57.092Z,89.51
2022-12-03T22:22:23.592Z,89.39
2022-12-03T22:24:50.002Z,89.16
2022-12-03T22:27:16.456Z,89.09
2022-12-03T22:29:42.901Z,89.40
2022-12-03T22:32:09.388Z,89.11
2022-12-03T22:34:35.910Z,89.46
2022-12-03T22:37:02.260Z,89.28
2022-12-03T22:39:28.586Z,89.20
2022-12-03T22:41:55.079Z,89.74
2022-12-03T22:44:21.576Z,89.34
2022-12-03T22:46:48.005Z,89.22
2022-12-03T22:49:14.536Z,89.42
2022-12-03T22:51:44.403Z,89.34
2022-12-03T22:54:11.430Z,89.26
2022-12-03T22:56:38.525Z,89.15
2022-12-03T22:59:05.589Z,89.17
2022-12-03T23:01:34.278Z,89.22
2022-12-03T23:04:01.238Z,89.40
2022-12-03T23:06:30.373Z,89.19
2022-12-03T23:08:58.505Z,89.11
2022-12-03T23:11:25.725Z,89.04
2022-12-03T23:13:52.535Z,89.24
2022-12-03T23:16:22.922Z,89.27
2022-12-03T23:18:50.456Z,89.13
2022-12-03T23:21:21.550Z,89.25
2022-12-03T23:23:50.431Z,89.51
2022-12-03T23:26:17.571Z,89.18
2022-12-03T23:28:45.891Z,89.10
2022-12-03T23:31:24.194Z,89.24
2022-12-03T23:33:52.128Z,89.22
2022-12-03T23:36:19.545Z,88.95
2022-12-03T23:38:46.371Z,89.26
2022-12-03T23:41:15.383Z,89.26
2022-12-03T23:43:41.902Z,88.65
2022-12-03T23:46:11.659Z,89.18
2022-12-03T23:48:39.218Z,88.81
2022-12-03T23:51:12.218Z,89.12
2022-12-03T23:53:39.764Z,89.13
2022-12-03T23:56:07.523Z,89.18
2022-12-03T23:58:34.570Z,88.63
